createdAt,value
2019-02-12T00:02:28.204Z,4.91
2019-02-12T00:04:57.963Z,4.92
2019-02-12T00:07:27.728Z,4.93
2019-02-12T00:09:57.946Z,4.93
2019-02-12T00:12:27.724Z,4.95
2019-02-12T00:14:57.495Z,4.98
2019-02-12T00:17:27.340Z,4.97
2019-02-12T00:19:57.192Z,5.00
2019-02-12T00:22:27.032Z,5.02
2019-02-12T00:24:56.895Z,5.03
2019-02-12T00:27:26.666Z,5.04
2019-02-12T00:29:56.592Z,5.06
2019-02-12T00:32:26.431Z,5.04
2019-02-12T00:34:56.288Z,5.04
2019-02-12T00:37:26.205Z,5.01
2019-02-12T00:39:56.089Z,4.98
2019-02-12T00:42:25.928Z,4.93
2019-02-12T00:44:55.790Z,4.90
2019-02-12T00:47:25.654Z,4.91
2019-02-12T00:49:55.812Z,4.90
2019-02-12T00:52:25.739Z,4.88
2019-02-12T00:54:55.847Z,4.87
2019-02-12T00:57:25.627Z,4.87
2019-02-12T00:59:55.517Z,4.88
2019-02-12T01:02:26.720Z,4.89
2019-02-12T01:04:56.985Z,4.89
2019-02-12T01:07:27.010Z,4.91
2019-02-12T01:09:56.924Z,4.90
2019-02-12T01:12:26.965Z,4.90
2019-02-12T01:14:56.736Z,4.89
2019-02-12T01:17:26.848Z,4.88
2019-02-12T01:19:56.744Z,4.88
2019-02-12T01:22:26.546Z,4.84
2019-02-12T01:24:57.059Z,4.81
2019-02-12T01:27:26.917Z,4.77
2019-02-12T01:29:56.690Z,4.73
2019-02-12T01:32:26.540Z,4.71
2019-02-12T01:34:56.315Z,4.68
2019-02-12T01:37:26.184Z,4.68
2019-02-12T01:39:56.248Z,4.69
2019-02-12T01:42:26.122Z,4.68
2019-02-12T01:44:56.000Z,4.68
2019-02-12T01:47:26.097Z,4.68
2019-02-12T01:49:55.894Z,4.69
2019-02-12T01:52:25.646Z,4.67
2019-02-12T01:54:55.837Z,4.64
2019-02-12T01:57:25.608Z,4.65
2019-02-12T01:59:55.385Z,4.63
2019-02-12T02:02:25.225Z,4.62
2019-02-12T02:04:55.088Z,4.59
2019-02-12T02:07:25.199Z,4.59
2019-02-12T02:09:55.949Z,4.58
2019-02-12T02:12:25.866Z,4.60
2019-02-12T02:14:55.643Z,4.57
2019-02-12T02:17:26.482Z,4.54
2019-02-12T02:19:56.703Z,4.53
2019-02-12T02:22:27.516Z,4.54
2019-02-12T02:24:57.291Z,4.53
2019-02-12T02:27:27.130Z,4.50
2019-02-12T02:29:56.917Z,4.46
2019-02-12T02:32:26.693Z,4.45
2019-02-12T02:34:56.539Z,4.45
2019-02-12T02:37:26.391Z,4.45
2019-02-12T02:39:57.336Z,4.44
2019-02-12T02:42:27.477Z,4.42
2019-02-12T02:44:57.334Z,4.39
2019-02-12T02:47:27.124Z,4.35
2019-02-12T02:49:57.053Z,4.30
2019-02-12T02:52:26.906Z,4.28
2019-02-12T02:54:56.704Z,4.24
2019-02-12T02:57:26.772Z,4.25
2019-02-12T02:59:56.613Z,4.26
2019-02-12T03:02:26.459Z,4.27
2019-02-12T03:04:56.718Z,4.27
2019-02-12T03:07:26.646Z,4.30
2019-02-12T03:09:56.710Z,4.32
2019-02-12T03:12:26.843Z,4.33
2019-02-12T03:14:57.028Z,4.30
2019-02-12T03:17:26.781Z,4.28
2019-02-12T03:19:56.562Z,4.26
2019-02-12T03:22:26.493Z,4.24
2019-02-12T03:24:56.541Z,4.24
2019-02-12T03:27:26.393Z,4.20
2019-02-12T03:29:56.165Z,4.19
2019-02-12T03:32:26.262Z,4.19
2019-02-12T03:34:56.108Z,4.19
2019-02-12T03:37:25.988Z,4.18
2019-02-12T03:39:55.786Z,4.17
2019-02-12T03:42:25.711Z,4.16
2019-02-12T03:44:55.639Z,4.15
2019-02-12T03:47:25.558Z,4.12
2019-02-12T03:49:55.743Z,4.08
2019-02-12T03:52:25.594Z,4.08
2019-02-12T03:54:55.520Z,4.09
2019-02-12T03:57:25.437Z,4.05
2019-02-12T03:59:55.302Z,4.01
2019-02-12T04:02:25.157Z,3.99
2019-02-12T04:04:55.003Z,3.95
2019-02-12T04:07:25.220Z,3.95
2019-02-12T04:09:55.143Z,3.96
2019-02-12T04:12:25.705Z,3.99
2019-02-12T04:14:55.559Z,4.04
2019-02-12T04:17:25.341Z,4.11
2019-02-12T04:19:55.266Z,4.16
2019-02-12T04:22:25.041Z,4.17
2019-02-12T04:24:54.880Z,4.17
2019-02-12T04:27:26.046Z,4.20
2019-02-12T04:29:55.827Z,4.24
2019-02-12T04:32:25.596Z,4.28
2019-02-12T04:34:55.389Z,4.32
2019-02-12T04:37:25.244Z,4.34
2019-02-12T04:39:55.301Z,4.35
2019-02-12T04:42:25.783Z,4.35
2019-02-12T04:44:55.541Z,4.35
2019-02-12T04:47:25.319Z,4.33
2019-02-12T04:49:55.221Z,4.27
2019-02-12T04:52:31.721Z,4.23
2019-02-12T04:54:56.596Z,4.21
2019-02-12T04:57:26.445Z,4.17
2019-02-12T04:59:56.553Z,4.13
2019-02-12T05:02:27.087Z,4.08
2019-02-12T05:04:56.927Z,4.03
2019-02-12T05:07:27.122Z,3.99
2019-02-12T05:09:57.162Z,3.93
2019-02-12T05:12:27.256Z,3.83
2019-02-12T05:14:57.082Z,3.77
2019-02-12T05:17:27.269Z,3.69
2019-02-12T05:19:57.419Z,3.65
2019-02-12T05:22:27.579Z,3.62
2019-02-12T05:24:57.850Z,3.59
2019-02-12T05:27:28.088Z,3.58
2019-02-12T05:29:57.892Z,3.60
2019-02-12T05:32:28.100Z,3.65
2019-02-12T05:34:57.953Z,3.68
2019-02-12T05:37:27.804Z,3.71
2019-02-12T05:39:57.737Z,3.75
2019-02-12T05:42:27.528Z,3.79
2019-02-12T05:44:57.792Z,3.79
2019-02-12T05:47:27.707Z,3.80
2019-02-12T05:49:57.513Z,3.79
2019-02-12T05:52:27.444Z,3.81
2019-02-12T05:54:57.288Z,3.84
2019-02-12T05:57:27.074Z,3.88
2019-02-12T05:59:56.843Z,3.90
2019-02-12T06:02:26.704Z,3.92
2019-02-12T06:04:56.563Z,3.94
2019-02-12T06:07:26.710Z,3.96
2019-02-12T06:09:56.481Z,3.97
2019-02-12T06:12:26.434Z,3.98
2019-02-12T06:14:56.297Z,4.00
2019-02-12T06:17:26.349Z,4.02
2019-02-12T06:19:56.195Z,4.03
2019-02-12T06:22:26.599Z,4.06
2019-02-12T06:24:57.139Z,4.08
2019-02-12T06:27:26.919Z,4.10
2019-02-12T06:29:56.698Z,4.10
2019-02-12T06:32:26.776Z,4.10
2019-02-12T06:34:56.611Z,4.06
2019-02-12T06:37:26.778Z,4.04
2019-02-12T06:39:56.541Z,4.05
2019-02-12T06:42:26.319Z,4.06
2019-02-12T06:44:56.233Z,4.04
2019-02-12T06:47:26.376Z,4.03
2019-02-12T06:49:56.208Z,4.04
2019-02-12T06:52:26.288Z,4.05
2019-02-12T06:54:56.173Z,4.04
2019-02-12T06:57:26.348Z,4.05
2019-02-12T06:59:56.285Z,4.05
2019-02-12T07:03:01.980Z,4.06
2019-02-12T07:05:31.830Z,4.05
2019-02-12T07:08:50.921Z,4.06
2019-02-12T07:11:44.847Z,4.08
2019-02-12T07:14:54.979Z,4.09
2019-02-12T07:17:53.504Z,4.10
2019-02-12T07:20:44.093Z,4.10
2019-02-12T07:23:45.553Z,4.11
2019-02-12T07:26:52.934Z,4.14
2019-02-12T07:29:58.187Z,4.15
2019-02-12T07:33:13.319Z,4.16
2019-02-12T07:36:15.751Z,4.17
2019-02-12T07:39:15.963Z,4.18
2019-02-12T07:42:21.915Z,4.17
2019-02-12T07:45:32.018Z,4.21
2019-02-12T07:48:29.673Z,4.28
2019-02-12T07:51:24.172Z,4.36
2019-02-12T07:54:20.493Z,4.45
2019-02-12T07:57:15.787Z,4.54
2019-02-12T08:00:10.588Z,4.59
2019-02-12T08:03:36.849Z,4.63
2019-02-12T08:06:46.367Z,4.64
2019-02-12T08:10:00.873Z,4.67
2019-02-12T08:12:52.859Z,4.68
2019-02-12T08:15:34.720Z,4.71
2019-02-12T08:18:36.449Z,4.75
2019-02-12T08:21:28.220Z,4.75
2019-02-12T08:24:52.373Z,4.74
2019-02-12T08:27:58.443Z,4.72
2019-02-12T08:31:05.151Z,4.72
2019-02-12T08:34:10.860Z,4.74
2019-02-12T08:37:12.292Z,4.77
2019-02-12T08:40:23.993Z,4.81
2019-02-12T08:43:00.251Z,4.85
2019-02-12T08:46:08.368Z,4.87
2019-02-12T08:48:49.016Z,4.91
2019-02-12T08:52:17.980Z,4.93
2019-02-12T08:55:36.794Z,4.94
2019-02-12T08:58:31.140Z,4.98
2019-02-12T09:01:25.645Z,5.03
2019-02-12T09:04:41.809Z,5.04
2019-02-12T09:07:42.285Z,5.08
2019-02-12T09:10:37.361Z,5.12
2019-02-12T09:13:27.150Z,5.19
2019-02-12T09:16:50.722Z,5.25
2019-02-12T09:19:34.697Z,5.31
2019-02-12T09:22:35.284Z,5.36
2019-02-12T09:25:39.206Z,5.39
2019-02-12T09:28:42.684Z,5.41
2019-02-12T09:32:04.597Z,5.44
2019-02-12T09:35:18.855Z,5.45
2019-02-12T09:38:33.160Z,5.48
2019-02-12T09:41:39.539Z,5.49
2019-02-12T09:44:31.729Z,5.53
2019-02-12T09:47:27.198Z,5.55
2019-02-12T09:50:46.550Z,5.58
2019-02-12T09:53:54.547Z,5.63
2019-02-12T09:56:48.860Z,5.63
2019-02-12T10:00:02.806Z,5.66
2019-02-12T10:03:10.991Z,5.66
2019-02-12T10:06:21.727Z,5.65
2019-02-12T10:09:33.395Z,5.65
2019-02-12T10:12:35.251Z,5.72
2019-02-12T10:15:30.317Z,5.75
2019-02-12T10:18:32.736Z,5.81
2019-02-12T10:21:21.367Z,5.85
2019-02-12T10:24:19.339Z,5.91
2019-02-12T10:26:44.039Z,5.94
2019-02-12T10:29:34.315Z,5.95
2019-02-12T10:32:08.410Z,5.94
2019-02-12T10:34:34.187Z,5.94
2019-02-12T10:37:04.129Z,5.96
2019-02-12T10:39:34.241Z,5.98
2019-02-12T10:42:04.199Z,6.02
2019-02-12T10:44:33.985Z,6.05
2019-02-12T10:47:04.160Z,6.07
2019-02-12T10:49:34.015Z,6.05
2019-02-12T10:52:03.865Z,6.10
2019-02-12T10:54:33.664Z,6.08
2019-02-12T10:57:03.488Z,6.06
2019-02-12T10:59:33.373Z,6.10
2019-02-12T11:02:03.540Z,6.15
2019-02-12T11:04:33.456Z,6.22
2019-02-12T11:07:03.489Z,6.25
2019-02-12T11:09:33.325Z,6.26
2019-02-12T11:12:03.182Z,6.25
2019-02-12T11:14:33.036Z,6.26
2019-02-12T11:17:02.843Z,6.30
2019-02-12T11:19:32.777Z,6.34
2019-02-12T11:22:02.839Z,6.35
2019-02-12T11:24:35.672Z,6.35
2019-02-12T11:27:04.249Z,6.35
2019-02-12T11:29:34.174Z,6.33
2019-02-12T11:32:04.416Z,6.35
2019-02-12T11:34:34.271Z,6.40
2019-02-12T11:37:04.404Z,6.42
2019-02-12T11:39:34.249Z,6.46
2019-02-12T11:42:04.115Z,6.44
2019-02-12T11:44:33.904Z,6.49
2019-02-12T11:47:03.704Z,6.44
2019-02-12T11:49:33.560Z,6.46
2019-02-12T11:52:03.503Z,6.52
2019-02-12T11:54:33.716Z,6.57
2019-02-12T11:57:03.561Z,6.57
2019-02-12T11:59:33.775Z,6.58
2019-02-12T12:02:03.551Z,6.59
2019-02-12T12:04:33.413Z,6.60
2019-02-12T12:07:03.324Z,6.64
2019-02-12T12:09:33.246Z,6.66
2019-02-12T12:12:03.335Z,6.66
2019-02-12T12:14:33.538Z,6.65
2019-02-12T12:17:03.381Z,6.66
2019-02-12T12:19:33.228Z,6.69
2019-02-12T12:22:03.151Z,6.72
2019-02-12T12:24:33.015Z,6.79
2019-02-12T12:27:02.928Z,6.84
2019-02-12T12:29:32.950Z,6.84
2019-02-12T12:32:02.837Z,6.86
2019-02-12T12:34:33.788Z,6.92
2019-02-12T12:37:04.782Z,6.97
2019-02-12T12:39:34.566Z,6.99
2019-02-12T12:42:04.482Z,7.05
2019-02-12T12:44:34.504Z,7.05
2019-02-12T12:47:04.503Z,7.08
2019-02-12T12:49:34.714Z,7.13
2019-02-12T12:52:04.666Z,7.16
2019-02-12T12:54:35.899Z,7.21
2019-02-12T12:57:06.110Z,7.29
2019-02-12T12:59:35.975Z,7.40
2019-02-12T13:02:06.132Z,7.54
2019-02-12T13:04:36.144Z,7.64
2019-02-12T13:07:06.337Z,7.69
2019-02-12T13:09:37.256Z,7.76
2019-02-12T13:12:07.495Z,7.80
2019-02-12T13:14:37.781Z,7.83
2019-02-12T13:17:07.560Z,7.76
2019-02-12T13:19:37.790Z,7.74
2019-02-12T13:22:07.710Z,7.75
2019-02-12T13:24:37.554Z,7.78
2019-02-12T13:27:07.343Z,7.76
2019-02-12T13:29:38.169Z,7.74
2019-02-12T13:32:08.366Z,7.91
2019-02-12T13:34:38.521Z,8.04
2019-02-12T13:37:08.365Z,8.12
2019-02-12T13:39:38.236Z,8.15
2019-02-12T13:42:08.145Z,8.21
2019-02-12T13:44:38.043Z,8.18
2019-02-12T13:47:07.897Z,8.14
2019-02-12T13:49:37.679Z,8.18
2019-02-12T13:52:07.945Z,8.29
2019-02-12T13:54:37.800Z,8.49
2019-02-12T13:57:07.841Z,8.68
2019-02-12T13:59:37.616Z,8.78
2019-02-12T14:02:07.548Z,8.72
2019-02-12T14:04:37.825Z,8.64
2019-02-12T14:07:07.590Z,8.52
2019-02-12T14:09:37.376Z,8.40
2019-02-12T14:12:07.547Z,8.30
2019-02-12T14:14:37.986Z,8.20
2019-02-12T14:17:07.931Z,8.15
2019-02-12T14:19:37.768Z,8.06
2019-02-12T14:22:09.719Z,8.03
2019-02-12T14:24:39.978Z,8.03
2019-02-12T14:27:09.842Z,8.12
2019-02-12T14:29:39.894Z,8.22
2019-02-12T14:32:09.675Z,8.28
2019-02-12T14:34:39.434Z,8.42
2019-02-12T14:37:09.457Z,8.53
2019-02-12T14:39:39.377Z,8.57
2019-02-12T14:42:09.305Z,8.61
2019-02-12T14:44:39.144Z,8.61
2019-02-12T14:47:08.998Z,8.65
2019-02-12T14:49:38.850Z,8.72
2019-02-12T14:52:08.752Z,8.81
2019-02-12T14:54:38.562Z,8.92
2019-02-12T14:57:08.403Z,8.95
2019-02-12T14:59:38.562Z,8.91
2019-02-12T15:02:08.496Z,8.87
2019-02-12T15:04:38.262Z,8.85
2019-02-12T15:07:08.110Z,8.77
2019-02-12T15:09:37.966Z,8.69
2019-02-12T15:12:07.807Z,8.62
2019-02-12T15:14:37.579Z,8.55
2019-02-12T15:17:07.655Z,8.49
2019-02-12T15:19:37.507Z,8.42
2019-02-12T15:22:08.204Z,8.35
2019-02-12T15:24:38.042Z,8.23
2019-02-12T15:27:08.442Z,8.16
2019-02-12T15:29:38.546Z,8.07
2019-02-12T15:32:08.458Z,8.02
2019-02-12T15:34:38.254Z,7.99
2019-02-12T15:37:08.193Z,7.93
2019-02-12T15:39:38.050Z,7.90
2019-02-12T15:42:08.015Z,7.89
2019-02-12T15:44:37.864Z,7.87
2019-02-12T15:47:07.789Z,7.84
2019-02-12T15:49:37.551Z,7.80
2019-02-12T15:52:07.416Z,7.76
2019-02-12T15:54:37.275Z,7.70
2019-02-12T15:57:09.082Z,7.70
2019-02-12T15:59:39.017Z,7.70
2019-02-12T16:02:09.668Z,7.71
2019-02-12T16:04:40.736Z,7.71
2019-02-12T16:07:10.698Z,7.72
2019-02-12T16:09:41.666Z,7.71
2019-02-12T16:12:11.564Z,7.71
2019-02-12T16:14:42.144Z,7.70
2019-02-12T16:17:14.482Z,7.68
2019-02-12T16:19:45.205Z,7.66
2019-02-12T16:22:16.188Z,7.65
2019-02-12T16:24:46.205Z,7.64
2019-02-12T16:27:16.209Z,7.62
2019-02-12T16:29:46.366Z,7.60
2019-02-12T16:32:16.638Z,7.52
2019-02-12T16:37:34.292Z,7.48
2019-02-12T16:40:04.471Z,7.43
2019-02-12T16:42:34.321Z,7.40
2019-02-12T16:45:04.400Z,7.38
2019-02-12T16:47:34.710Z,7.35
2019-02-12T16:50:05.012Z,7.33
2019-02-12T16:52:35.228Z,7.29
2019-02-12T16:55:05.367Z,7.27
2019-02-12T16:57:35.220Z,7.23
2019-02-12T17:00:08.068Z,7.19
2019-02-12T17:02:39.618Z,7.18
2019-02-12T17:05:10.869Z,7.18
2019-02-12T17:07:40.789Z,7.15
2019-02-12T17:10:11.194Z,7.12
2019-02-12T17:12:42.254Z,7.11
2019-02-12T17:15:12.449Z,7.10
2019-02-12T17:17:42.369Z,7.10
2019-02-12T17:20:15.083Z,7.06
2019-02-12T17:22:45.012Z,7.06
2019-02-12T17:25:15.121Z,7.05
2019-02-12T17:27:45.411Z,7.05
2019-02-12T17:30:16.027Z,7.02
2019-02-12T17:32:46.183Z,6.99
2019-02-12T17:35:16.418Z,6.96
2019-02-12T17:37:46.629Z,6.95
2019-02-12T17:40:16.580Z,6.89
2019-02-12T17:42:47.267Z,6.83
2019-02-12T17:45:17.392Z,6.75
2019-02-12T17:47:47.329Z,6.67
2019-02-12T17:50:17.363Z,6.61
2019-02-12T17:52:47.190Z,6.55
2019-02-12T17:55:17.361Z,6.50
2019-02-12T17:57:47.252Z,6.42
2019-02-12T18:00:19.232Z,6.34
2019-02-12T18:02:49.147Z,6.28
2019-02-12T18:05:19.074Z,6.21
2019-02-12T18:07:49.256Z,6.14
2019-02-12T18:10:19.467Z,6.07
2019-02-12T18:12:49.324Z,6.04
2019-02-12T18:15:19.729Z,5.99
2019-02-12T18:17:49.530Z,5.96
2019-02-12T18:20:26.328Z,5.94
2019-02-12T18:22:51.171Z,5.93
2019-02-12T18:25:21.019Z,5.94
2019-02-12T18:27:51.859Z,5.94
2019-02-12T18:30:21.979Z,5.95
2019-02-12T18:32:57.489Z,5.97
2019-02-12T18:35:29.386Z,5.96
2019-02-12T18:37:59.601Z,5.95
2019-02-12T18:40:29.584Z,5.93
2019-02-12T18:42:59.594Z,5.96
2019-02-12T18:45:29.457Z,5.98
2019-02-12T18:47:59.452Z,6.03
2019-02-12T18:50:29.284Z,6.07
2019-02-12T18:52:59.382Z,6.06
2019-02-12T18:55:29.237Z,6.06
2019-02-12T18:57:59.016Z,6.09
2019-02-12T19:00:29.147Z,6.12
2019-02-12T19:02:59.229Z,6.19
2019-02-12T19:05:29.775Z,6.26
2019-02-12T19:07:59.808Z,6.33
2019-02-12T19:10:29.813Z,6.38
2019-02-12T19:13:00.029Z,6.42
2019-02-12T19:15:30.367Z,6.44
2019-02-12T19:18:05.411Z,6.48
2019-02-12T19:20:35.296Z,6.50
2019-02-12T19:23:06.549Z,6.53
2019-02-12T19:25:36.770Z,6.56
2019-02-12T19:28:06.626Z,6.57
2019-02-12T19:30:36.514Z,6.56
2019-02-12T19:33:06.441Z,6.56
2019-02-12T19:35:36.367Z,6.56
2019-02-12T19:38:06.305Z,6.56
2019-02-12T19:40:36.566Z,6.56
2019-02-12T19:43:06.489Z,6.53
2019-02-12T19:45:36.342Z,6.49
2019-02-12T19:48:06.317Z,6.50
2019-02-12T19:50:37.244Z,6.50
2019-02-12T19:53:07.155Z,6.45
2019-02-12T19:55:37.000Z,6.45
2019-02-12T19:58:06.932Z,6.42
2019-02-12T20:00:36.787Z,6.39
2019-02-12T20:03:06.717Z,6.35
2019-02-12T20:05:37.546Z,6.31
2019-02-12T20:08:07.499Z,6.27
2019-02-12T20:10:37.438Z,6.24
2019-02-12T20:13:07.490Z,6.22
2019-02-12T20:15:37.334Z,6.20
2019-02-12T20:18:07.187Z,6.13
2019-02-12T20:20:37.332Z,6.11
2019-02-12T20:23:07.264Z,6.11
2019-02-12T20:25:37.103Z,6.10
2019-02-12T20:28:06.956Z,6.09
2019-02-12T20:30:37.507Z,6.10
2019-02-12T20:33:07.445Z,6.11
2019-02-12T20:35:37.610Z,6.10
2019-02-12T20:38:07.746Z,6.07
2019-02-12T20:40:37.605Z,6.03
2019-02-12T20:43:07.546Z,5.98
2019-02-12T20:45:37.463Z,5.94
2019-02-12T20:48:07.581Z,5.90
2019-02-12T20:50:37.851Z,5.88
2019-02-12T20:53:07.710Z,5.86
2019-02-12T20:55:37.933Z,5.84
2019-02-12T20:58:07.879Z,5.81
2019-02-12T21:00:37.734Z,5.80
2019-02-12T21:03:07.662Z,5.79
2019-02-12T21:05:37.442Z,5.80
2019-02-12T21:08:07.306Z,5.79
2019-02-12T21:10:37.140Z,5.78
2019-02-12T21:13:07.068Z,5.82
2019-02-12T21:15:36.966Z,5.83
2019-02-12T21:18:06.917Z,5.83
2019-02-12T21:20:36.948Z,5.81
2019-02-12T21:23:07.143Z,5.83
2019-02-12T21:25:37.273Z,5.83
2019-02-12T21:28:07.123Z,5.82
2019-02-12T21:30:37.002Z,5.78
2019-02-12T21:33:07.629Z,5.74
2019-02-12T21:35:37.403Z,5.71
2019-02-12T21:38:09.145Z,5.70
2019-02-12T21:40:38.918Z,5.71
2019-02-12T21:43:08.780Z,5.70
2019-02-12T21:45:40.359Z,5.74
2019-02-12T21:48:10.223Z,5.75
2019-02-12T21:50:40.025Z,5.75
2019-02-12T21:53:09.866Z,5.74
2019-02-12T21:55:39.809Z,5.76
2019-02-12T21:58:09.937Z,5.75
2019-02-12T22:00:39.882Z,5.73
2019-02-12T22:03:09.669Z,5.73
2019-02-12T22:05:39.602Z,5.71
2019-02-12T22:08:09.374Z,5.69
2019-02-12T22:10:46.263Z,5.68
2019-02-12T22:13:10.694Z,5.68
2019-02-12T22:15:40.549Z,5.66
2019-02-12T22:18:10.482Z,5.65
2019-02-12T22:20:40.406Z,5.68
2019-02-12T22:23:10.278Z,5.67
2019-02-12T22:25:40.216Z,5.61
2019-02-12T22:28:11.037Z,5.56
2019-02-12T22:30:40.808Z,5.52
2019-02-12T22:33:10.677Z,5.51
2019-02-12T22:35:40.808Z,5.51
2019-02-12T22:38:11.643Z,5.51
2019-02-12T22:40:41.465Z,5.50
2019-02-12T22:43:11.599Z,5.48
2019-02-12T22:45:41.455Z,5.51
2019-02-12T22:48:11.237Z,5.53
2019-02-12T22:50:41.416Z,5.57
2019-02-12T22:53:11.280Z,5.58
2019-02-12T22:55:41.327Z,5.57
2019-02-12T22:58:11.467Z,5.58
2019-02-12T23:00:57.216Z,5.58
2019-02-12T23:03:27.989Z,5.59
2019-02-12T23:05:57.905Z,5.61
2019-02-12T23:08:27.841Z,5.59
2019-02-12T23:10:58.004Z,5.56
2019-02-12T23:13:27.868Z,5.51
2019-02-12T23:15:57.800Z,5.48
2019-02-12T23:18:27.586Z,5.47
2019-02-12T23:20:57.503Z,5.46
2019-02-12T23:23:27.360Z,5.46
2019-02-12T23:25:57.342Z,5.45
2019-02-12T23:28:27.300Z,5.43
2019-02-12T23:30:57.347Z,5.43
2019-02-12T23:33:27.212Z,5.42
2019-02-12T23:35:58.675Z,5.42
2019-02-12T23:38:29.148Z,5.41
2019-02-12T23:40:58.925Z,5.41
2019-02-12T23:43:28.973Z,5.39
2019-02-12T23:45:58.906Z,5.38
2019-02-12T23:48:28.681Z,5.36
2019-02-12T23:50:59.124Z,5.34
2019-02-12T23:53:28.887Z,5.33
2019-02-12T23:55:58.748Z,5.31
2019-02-12T23:58:29.176Z,5.27
